sensor_id;sensor_type;location;lat;lon;timestamp;P1;durP1;ratioP1;P2;durP2;ratioP2
30466;SDS011;17258;52.560;13.046;2023-04-24T00:02:04;2.47;;;2.27;;
30466;SDS011;17258;52.560;13.046;2023-04-24T00:12:06;2.33;;;2.13;;
30466;SDS011;17258;52.560;13.046;2023-04-24T00:22:07;1.77;;;1.67;;
30466;SDS011;17258;52.560;13.046;2023-04-24T00:32:07;1.77;;;1.67;;
30466;SDS011;17258;52.560;13.046;2023-04-24T00:42:08;1.73;;;1.63;;
30466;SDS011;17258;52.560;13.046;2023-04-24T00:52:09;2.00;;;1.60;;
30466;SDS011;17258;52.560;13.046;2023-04-24T01:02:10;2.15;;;1.95;;
30466;SDS011;17258;52.560;13.046;2023-04-24T01:12:11;1.92;;;1.83;;
30466;SDS011;17258;52.560;13.046;2023-04-24T01:22:13;14.05;;;1.55;;
30466;SDS011;17258;52.560;13.046;2023-04-24T01:32:14;4.05;;;1.70;;
30466;SDS011;17258;52.560;13.046;2023-04-24T01:42:15;1.98;;;1.80;;
30466;SDS011;17258;52.560;13.046;2023-04-24T01:52:16;4.05;;;1.88;;
30466;SDS011;17258;52.560;13.046;2023-04-24T02:02:18;1.70;;;1.60;;
30466;SDS011;17258;52.560;13.046;2023-04-24T02:12:21;3.53;;;1.75;;
30466;SDS011;17258;52.560;13.046;2023-04-24T02:22:21;1.87;;;1.77;;
30466;SDS011;17258;52.560;13.046;2023-04-24T02:32:22;2.03;;;1.87;;
30466;SDS011;17258;52.560;13.046;2023-04-24T02:42:23;1.67;;;1.57;;
30466;SDS011;17258;52.560;13.046;2023-04-24T02:52:23;1.85;;;1.75;;
30466;SDS011;17258;52.560;13.046;2023-04-24T03:02:24;1.98;;;1.77;;
30466;SDS011;17258;52.560;13.046;2023-04-24T03:12:25;2.90;;;1.63;;
30466;SDS011;17258;52.560;13.046;2023-04-24T03:22:25;1.75;;;1.65;;
30466;SDS011;17258;52.560;13.046;2023-04-24T03:32:26;1.83;;;1.73;;
30466;SDS011;17258;52.560;13.046;2023-04-24T03:42:27;2.17;;;1.90;;
30466;SDS011;17258;52.560;13.046;2023-04-24T03:52:27;7.13;;;1.70;;
30466;SDS011;17258;52.560;13.046;2023-04-24T04:02:28;1.53;;;1.43;;
30466;SDS011;17258;52.560;13.046;2023-04-24T04:12:29;1.70;;;1.60;;
30466;SDS011;17258;52.560;13.046;2023-04-24T04:22:29;2.03;;;1.75;;
30466;SDS011;17258;52.560;13.046;2023-04-24T04:32:31;1.70;;;1.60;;
30466;SDS011;17258;52.560;13.046;2023-04-24T04:42:33;1.08;;;1.08;;
30466;SDS011;17258;52.560;13.046;2023-04-24T04:52:34;1.42;;;1.33;;
30466;SDS011;17258;52.560;13.046;2023-04-24T05:02:34;1.47;;;1.37;;
30466;SDS011;17258;52.560;13.046;2023-04-24T05:12:35;1.30;;;1.17;;
30466;SDS011;17258;52.560;13.046;2023-04-24T05:22:36;1.30;;;1.20;;
30466;SDS011;17258;52.560;13.046;2023-04-24T05:32:36;0.97;;;0.93;;
30466;SDS011;17258;52.560;13.046;2023-04-24T05:42:37;0.90;;;0.90;;
30466;SDS011;17258;52.560;13.046;2023-04-24T05:52:38;0.60;;;0.60;;
30466;SDS011;17258;52.560;13.046;2023-04-24T06:02:38;0.83;;;0.73;;
30466;SDS011;17258;52.560;13.046;2023-04-24T06:12:39;1.10;;;0.90;;
30466;SDS011;17258;52.560;13.046;2023-04-24T06:22:40;1.05;;;1.05;;
30466;SDS011;17258;52.560;13.046;2023-04-24T06:32:41;1.00;;;1.00;;
30466;SDS011;17258;52.560;13.046;2023-04-24T06:42:41;0.90;;;0.77;;
30466;SDS011;17258;52.560;13.046;2023-04-24T06:52:42;0.87;;;0.87;;
30466;SDS011;17258;52.560;13.046;2023-04-24T07:02:44;1.00;;;0.90;;
30466;SDS011;17258;52.560;13.046;2023-04-24T07:12:44;9.97;;;1.00;;
30466;SDS011;17258;52.560;13.046;2023-04-24T07:22:46;1.48;;;1.38;;
30466;SDS011;17258;52.560;13.046;2023-04-24T07:32:48;1.35;;;1.35;;
30466;SDS011;17258;52.560;13.046;2023-04-24T07:42:48;3.37;;;2.80;;
30466;SDS011;17258;52.560;13.046;2023-04-24T07:52:49;16.70;;;15.70;;
30466;SDS011;17258;52.560;13.046;2023-04-24T08:02:50;17.10;;;16.10;;
30466;SDS011;17258;52.560;13.046;2023-04-24T08:12:51;1.90;;;0.70;;
30466;SDS011;17258;52.560;13.046;2023-04-24T08:22:51;0.38;;;0.38;;
30466;SDS011;17258;52.560;13.046;2023-04-24T08:32:52;4.80;;;0.83;;
30466;SDS011;17258;52.560;13.046;2023-04-24T08:42:53;0.57;;;0.50;;
30466;SDS011;17258;52.560;13.046;2023-04-24T08:53:00;0.40;;;0.40;;
30466;SDS011;17258;52.560;13.046;2023-04-24T09:03:01;1.00;;;0.80;;
30466;SDS011;17258;52.560;13.046;2023-04-24T09:13:03;0.57;;;0.57;;
30466;SDS011;17258;52.560;13.046;2023-04-24T09:23:03;0.60;;;0.60;;
30466;SDS011;17258;52.560;13.046;2023-04-24T09:33:13;0.80;;;0.80;;
30466;SDS011;17258;52.560;13.046;2023-04-24T09:43:15;0.88;;;0.60;;
30466;SDS011;17258;52.560;13.046;2023-04-24T09:53:16;0.90;;;0.90;;
30466;SDS011;17258;52.560;13.046;2023-04-24T10:03:25;18.30;;;17.00;;
30466;SDS011;17258;52.560;13.046;2023-04-24T10:13:29;17.60;;;16.50;;
30466;SDS011;17258;52.560;13.046;2023-04-24T10:23:31;17.58;;;16.48;;
30466;SDS011;17258;52.560;13.046;2023-04-24T10:33:32;16.52;;;15.52;;
30466;SDS011;17258;52.560;13.046;2023-04-24T10:43:33;17.73;;;16.60;;
30466;SDS011;17258;52.560;13.046;2023-04-24T10:53:34;13.90;;;13.10;;
30466;SDS011;17258;52.560;13.046;2023-04-24T11:03:35;12.43;;;11.73;;
30466;SDS011;17258;52.560;13.046;2023-04-24T11:23:55;10.05;;;9.57;;
30466;SDS011;17258;52.560;13.046;2023-04-24T11:33:56;9.30;;;8.90;;
30466;SDS011;17258;52.560;13.046;2023-04-24T11:43:56;10.60;;;10.10;;
30466;SDS011;17258;52.560;13.046;2023-04-24T11:53:58;11.65;;;11.05;;
30466;SDS011;17258;52.560;13.046;2023-04-24T12:03:59;12.55;;;11.95;;
30466;SDS011;17258;52.560;13.046;2023-04-24T12:14:10;13.50;;;12.80;;
30466;SDS011;17258;52.560;13.046;2023-04-24T12:24:12;13.75;;;13.05;;
30466;SDS011;17258;52.560;13.046;2023-04-24T12:44:33;13.25;;;12.55;;
30466;SDS011;17258;52.560;13.046;2023-04-24T12:54:35;13.40;;;12.50;;
30466;SDS011;17258;52.560;13.046;2023-04-24T13:04:36;13.40;;;12.63;;
30466;SDS011;17258;52.560;13.046;2023-04-24T13:14:36;12.50;;;11.90;;
30466;SDS011;17258;52.560;13.046;2023-04-24T13:24:38;14.85;;;13.95;;
30466;SDS011;17258;52.560;13.046;2023-04-24T13:34:42;15.95;;;15.05;;
30466;SDS011;17258;52.560;13.046;2023-04-24T13:44:43;16.13;;;15.18;;
30466;SDS011;17258;52.560;13.046;2023-04-24T13:54:43;16.43;;;15.43;;
30466;SDS011;17258;52.560;13.046;2023-04-24T14:04:44;15.53;;;14.43;;
30466;SDS011;17258;52.560;13.046;2023-04-24T14:14:45;17.50;;;16.07;;
30466;SDS011;17258;52.560;13.046;2023-04-24T14:24:47;16.55;;;15.55;;
30466;SDS011;17258;52.560;13.046;2023-04-24T14:34:48;18.20;;;17.00;;
30466;SDS011;17258;52.560;13.046;2023-04-24T14:44:49;17.60;;;16.50;;
30466;SDS011;17258;52.560;13.046;2023-04-24T14:54:50;18.23;;;17.02;;
30466;SDS011;17258;52.560;13.046;2023-04-24T15:04:50;18.50;;;17.30;;
30466;SDS011;17258;52.560;13.046;2023-04-24T15:14:51;14.20;;;13.30;;
30466;SDS011;17258;52.560;13.046;2023-04-24T15:24:52;18.25;;;17.13;;
30466;SDS011;17258;52.560;13.046;2023-04-24T15:34:53;18.30;;;17.10;;
30466;SDS011;17258;52.560;13.046;2023-04-24T15:44:53;17.93;;;16.83;;
30466;SDS011;17258;52.560;13.046;2023-04-24T15:54:54;18.77;;;17.58;;
30466;SDS011;17258;52.560;13.046;2023-04-24T16:04:55;18.02;;;16.92;;
30466;SDS011;17258;52.560;13.046;2023-04-24T16:14:56;9.73;;;9.23;;
30466;SDS011;17258;52.560;13.046;2023-04-24T16:24:57;1.17;;;1.17;;
30466;SDS011;17258;52.560;13.046;2023-04-24T16:34:57;1.00;;;0.90;;
30466;SDS011;17258;52.560;13.046;2023-04-24T16:44:58;7.90;;;7.60;;
30466;SDS011;17258;52.560;13.046;2023-04-24T16:54:59;1.83;;;1.40;;
30466;SDS011;17258;52.560;13.046;2023-04-24T17:04:59;0.73;;;0.73;;
30466;SDS011;17258;52.560;13.046;2023-04-24T17:15:00;0.93;;;0.87;;
30466;SDS011;17258;52.560;13.046;2023-04-24T17:25:01;0.60;;;0.60;;
30466;SDS011;17258;52.560;13.046;2023-04-24T17:35:01;1.03;;;0.93;;
30466;SDS011;17258;52.560;13.046;2023-04-24T17:45:02;1.52;;;1.20;;
30466;SDS011;17258;52.560;13.046;2023-04-24T17:55:03;0.82;;;0.70;;
30466;SDS011;17258;52.560;13.046;2023-04-24T18:05:05;0.30;;;0.30;;
30466;SDS011;17258;52.560;13.046;2023-04-24T18:15:06;0.20;;;0.20;;
30466;SDS011;17258;52.560;13.046;2023-04-24T18:25:07;0.43;;;0.40;;
30466;SDS011;17258;52.560;13.046;2023-04-24T18:35:09;0.40;;;0.40;;
30466;SDS011;17258;52.560;13.046;2023-04-24T18:45:10;0.45;;;0.45;;
30466;SDS011;17258;52.560;13.046;2023-04-24T18:55:11;0.55;;;0.55;;
30466;SDS011;17258;52.560;13.046;2023-04-24T19:05:12;0.63;;;0.60;;
30466;SDS011;17258;52.560;13.046;2023-04-24T19:15:12;1.17;;;0.50;;
30466;SDS011;17258;52.560;13.046;2023-04-24T19:25:13;0.40;;;0.40;;
30466;SDS011;17258;52.560;13.046;2023-04-24T19:35:14;0.60;;;0.60;;
30466;SDS011;17258;52.560;13.046;2023-04-24T19:45:15;0.55;;;0.52;;
30466;SDS011;17258;52.560;13.046;2023-04-24T19:55:16;0.87;;;0.80;;
30466;SDS011;17258;52.560;13.046;2023-04-24T20:05:17;0.80;;;0.80;;
30466;SDS011;17258;52.560;13.046;2023-04-24T20:15:17;1.10;;;1.00;;
30466;SDS011;17258;52.560;13.046;2023-04-24T20:25:18;1.40;;;1.30;;
30466;SDS011;17258;52.560;13.046;2023-04-24T20:35:19;0.88;;;0.80;;
30466;SDS011;17258;52.560;13.046;2023-04-24T20:45:20;1.70;;;1.60;;
30466;SDS011;17258;52.560;13.046;2023-04-24T20:55:21;4.85;;;1.35;;
30466;SDS011;17258;52.560;13.046;2023-04-24T21:05:22;1.37;;;1.27;;
30466;SDS011;17258;52.560;13.046;2023-04-24T21:15:23;2.00;;;1.30;;
30466;SDS011;17258;52.560;13.046;2023-04-24T21:25:24;1.52;;;1.35;;
30466;SDS011;17258;52.560;13.046;2023-04-24T21:35:25;2.28;;;1.85;;
30466;SDS011;17258;52.560;13.046;2023-04-24T21:45:25;1.53;;;1.43;;
30466;SDS011;17258;52.560;13.046;2023-04-24T21:55:26;1.47;;;1.37;;
30466;SDS011;17258;52.560;13.046;2023-04-24T22:05:27;1.45;;;1.35;;
30466;SDS011;17258;52.560;13.046;2023-04-24T22:15:29;1.60;;;1.50;;
30466;SDS011;17258;52.560;13.046;2023-04-24T22:25:30;2.50;;;2.17;;
30466;SDS011;17258;52.560;13.046;2023-04-24T22:35:31;2.63;;;1.80;;
30466;SDS011;17258;52.560;13.046;2023-04-24T22:45:31;2.25;;;2.00;;
30466;SDS011;17258;52.560;13.046;2023-04-24T22:55:32;2.40;;;1.67;;
30466;SDS011;17258;52.560;13.046;2023-04-24T23:05:34;1.52;;;1.42;;
30466;SDS011;17258;52.560;13.046;2023-04-24T23:15:35;2.43;;;1.73;;
30466;SDS011;17258;52.560;13.046;2023-04-24T23:25:35;3.67;;;1.43;;
30466;SDS011;17258;52.560;13.046;2023-04-24T23:35:36;1.40;;;1.30;;
30466;SDS011;17258;52.560;13.046;2023-04-24T23:45:37;1.40;;;1.30;;
30466;SDS011;17258;52.560;13.046;2023-04-24T23:55:37;2.05;;;1.13;;
